createdAt,value
2018-03-27T00:00:56.765Z,0
2018-03-27T00:01:56.702Z,0
2018-03-27T00:02:57.151Z,0
2018-03-27T00:03:56.922Z,0
2018-03-27T00:04:56.907Z,0
2018-03-27T00:05:57.193Z,0
2018-03-27T00:06:56.869Z,0
2018-03-27T00:07:56.581Z,0
2018-03-27T00:08:56.559Z,0
2018-03-27T00:09:57.080Z,0
2018-03-27T00:10:56.789Z,0
2018-03-27T00:11:56.827Z,0
2018-03-27T00:12:56.215Z,0
2018-03-27T00:13:56.736Z,0
2018-03-27T00:14:56.978Z,0
2018-03-27T00:15:56.438Z,0
2018-03-27T00:16:56.413Z,0
2018-03-27T00:17:56.390Z,0
2018-03-27T00:18:56.633Z,0
2018-03-27T00:19:56.368Z,0
2018-03-27T00:20:56.323Z,0
2018-03-27T00:21:56.316Z,0
2018-03-27T00:22:56.558Z,0
2018-03-27T00:23:56.539Z,0
2018-03-27T00:24:56.522Z,0
2018-03-27T00:25:56.238Z,0
2018-03-27T00:26:56.480Z,0
2018-03-27T00:27:56.478Z,0
2018-03-27T00:28:56.175Z,0
2018-03-27T00:29:56.173Z,0
2018-03-27T00:30:56.664Z,0
2018-03-27T00:31:56.167Z,0
2018-03-27T00:32:56.677Z,0
2018-03-27T00:33:56.368Z,0
2018-03-27T00:34:56.586Z,0
2018-03-27T00:35:55.773Z,0
2018-03-27T00:36:56.554Z,0
2018-03-27T00:37:56.307Z,0
2018-03-27T00:38:56.276Z,0
2018-03-27T00:39:56.251Z,0
2018-03-27T00:40:55.955Z,0
2018-03-27T00:41:56.479Z,0
2018-03-27T00:42:56.446Z,0
2018-03-27T00:43:55.933Z,0
2018-03-27T00:44:55.613Z,0
2018-03-27T00:45:55.852Z,0
2018-03-27T00:46:56.119Z,0
2018-03-27T00:47:55.830Z,0
2018-03-27T00:48:55.789Z,0
2018-03-27T00:49:56.299Z,0
2018-03-27T00:50:56.285Z,0
2018-03-27T00:51:56.301Z,0
2018-03-27T00:52:55.712Z,0
2018-03-27T00:53:56.224Z,0
2018-03-27T00:54:56.256Z,0
2018-03-27T00:55:55.662Z,0
2018-03-27T00:56:55.915Z,0
2018-03-27T00:57:55.930Z,0
2018-03-27T00:58:55.616Z,0
2018-03-27T00:59:55.867Z,0
2018-03-27T01:00:55.828Z,0
2018-03-27T01:01:55.584Z,0
2018-03-27T01:02:56.054Z,0
2018-03-27T01:03:55.231Z,0
2018-03-27T01:04:55.210Z,0
2018-03-27T01:05:55.456Z,0
2018-03-27T01:06:55.464Z,0
2018-03-27T01:07:55.949Z,0
2018-03-27T01:08:55.669Z,0
2018-03-27T01:09:55.652Z,0
2018-03-27T01:10:55.360Z,0
2018-03-27T01:11:55.623Z,0
2018-03-27T01:12:55.587Z,0
2018-03-27T01:13:55.567Z,0
2018-03-27T01:14:55.316Z,0
2018-03-27T01:15:55.259Z,0
2018-03-27T01:16:55.513Z,0
2018-03-27T01:17:55.490Z,0
2018-03-27T01:18:55.211Z,0
2018-03-27T01:19:55.452Z,0
2018-03-27T01:20:55.703Z,0
2018-03-27T01:21:55.414Z,0
2018-03-27T01:22:55.711Z,0
2018-03-27T01:23:55.108Z,0
2018-03-27T01:24:55.086Z,0
2018-03-27T01:25:55.341Z,0
2018-03-27T01:26:55.313Z,0
2018-03-27T01:27:55.031Z,0
2018-03-27T01:28:55.277Z,0
2018-03-27T01:29:55.532Z,0
2018-03-27T01:30:55.240Z,0
2018-03-27T01:31:55.220Z,0
2018-03-27T01:32:55.199Z,0
2018-03-27T01:33:54.653Z,0
2018-03-27T01:34:55.426Z,0
2018-03-27T01:35:55.162Z,0
2018-03-27T01:36:55.127Z,0
2018-03-27T01:37:55.102Z,0
2018-03-27T01:38:55.346Z,0
2018-03-27T01:39:55.095Z,0
2018-03-27T01:40:55.325Z,0
2018-03-27T01:41:54.762Z,0
2018-03-27T01:42:55.275Z,0
2018-03-27T01:43:54.989Z,0
2018-03-27T01:44:54.707Z,0
2018-03-27T01:45:54.959Z,0
2018-03-27T01:46:54.664Z,0
2018-03-27T01:47:54.910Z,0
2018-03-27T01:48:54.628Z,0
2018-03-27T01:49:54.610Z,0
2018-03-27T01:50:54.599Z,0
2018-03-27T01:51:55.098Z,0
2018-03-27T01:52:54.820Z,0
2018-03-27T01:53:54.259Z,0
2018-03-27T01:54:54.878Z,0
2018-03-27T01:55:55.025Z,0
2018-03-27T01:56:54.207Z,0
2018-03-27T01:57:55.027Z,0
2018-03-27T01:58:54.699Z,0
2018-03-27T01:59:54.963Z,0
2018-03-27T02:00:54.658Z,0
2018-03-27T02:01:54.671Z,0
2018-03-27T02:02:55.092Z,0
2018-03-27T02:03:54.624Z,0
2018-03-27T02:04:54.612Z,0
2018-03-27T02:05:54.636Z,0
2018-03-27T02:06:54.921Z,0
2018-03-27T02:07:54.564Z,0
2018-03-27T02:08:54.505Z,0
2018-03-27T02:09:54.491Z,0
2018-03-27T02:10:54.474Z,0
2018-03-27T02:11:53.934Z,0
2018-03-27T02:12:54.423Z,0
2018-03-27T02:13:53.878Z,0
2018-03-27T02:14:53.854Z,0
2018-03-27T02:15:54.263Z,0
2018-03-27T02:16:54.082Z,0
2018-03-27T02:17:54.210Z,0
2018-03-27T02:18:54.160Z,0
2018-03-27T02:19:54.294Z,0
2018-03-27T02:20:54.000Z,0
2018-03-27T02:21:53.718Z,0
2018-03-27T02:22:53.965Z,0
2018-03-27T02:23:54.212Z,0
2018-03-27T02:24:54.216Z,0
2018-03-27T02:25:54.248Z,0
2018-03-27T02:26:53.896Z,0
2018-03-27T02:27:54.131Z,0
2018-03-27T02:28:54.381Z,0
2018-03-27T02:29:53.563Z,0
2018-03-27T02:30:54.131Z,0
2018-03-27T02:31:54.333Z,0
2018-03-27T02:32:54.053Z,0
2018-03-27T02:33:54.045Z,0
2018-03-27T02:34:54.167Z,0
2018-03-27T02:35:54.244Z,0
2018-03-27T02:36:53.696Z,0
2018-03-27T02:37:53.995Z,0
2018-03-27T02:38:53.961Z,0
2018-03-27T02:39:53.677Z,0
2018-03-27T02:40:54.152Z,0
2018-03-27T02:41:53.599Z,0
2018-03-27T02:42:53.597Z,0
2018-03-27T02:43:53.550Z,0
2018-03-27T02:44:53.556Z,0
2018-03-27T02:45:53.787Z,0
2018-03-27T02:46:54.028Z,0
2018-03-27T02:47:53.748Z,0
2018-03-27T02:48:53.717Z,0
2018-03-27T02:49:53.717Z,0
2018-03-27T02:50:53.963Z,0
2018-03-27T02:51:53.923Z,0
2018-03-27T02:52:53.688Z,0
2018-03-27T02:53:53.371Z,0
2018-03-27T02:54:53.599Z,0
2018-03-27T02:55:53.855Z,0
2018-03-27T02:56:53.108Z,0
2018-03-27T02:57:53.547Z,0
2018-03-27T02:58:53.529Z,0
2018-03-27T02:59:53.848Z,0
2018-03-27T03:00:53.211Z,0
2018-03-27T03:01:53.204Z,0
2018-03-27T03:02:53.176Z,0
2018-03-27T03:03:53.475Z,0
2018-03-27T03:04:53.691Z,0
2018-03-27T03:05:53.426Z,0
2018-03-27T03:06:53.366Z,0
2018-03-27T03:07:53.660Z,0
2018-03-27T03:08:53.320Z,0
2018-03-27T03:09:53.037Z,0
2018-03-27T03:10:52.767Z,0
2018-03-27T03:11:52.999Z,0
2018-03-27T03:12:53.268Z,0
2018-03-27T03:13:53.217Z,0
2018-03-27T03:14:53.252Z,0
2018-03-27T03:15:53.213Z,0
2018-03-27T03:16:52.926Z,0
2018-03-27T03:17:53.213Z,0
2018-03-27T03:18:52.861Z,0
2018-03-27T03:19:53.434Z,0
2018-03-27T03:20:52.877Z,0
2018-03-27T03:21:53.182Z,0
2018-03-27T03:22:53.035Z,0
2018-03-27T03:23:52.745Z,0
2018-03-27T03:24:52.732Z,0
2018-03-27T03:25:52.979Z,0
2018-03-27T03:26:53.287Z,0
2018-03-27T03:27:52.969Z,0
2018-03-27T03:28:52.643Z,0
2018-03-27T03:29:53.162Z,0
2018-03-27T03:30:53.171Z,0
2018-03-27T03:31:53.119Z,0
2018-03-27T03:32:52.847Z,0
2018-03-27T03:33:52.809Z,0
2018-03-27T03:34:52.265Z,0
2018-03-27T03:35:52.768Z,0
2018-03-27T03:36:52.766Z,0
2018-03-27T03:37:52.461Z,0
2018-03-27T03:38:52.972Z,0
2018-03-27T03:39:52.681Z,0
2018-03-27T03:40:52.129Z,0
2018-03-27T03:41:52.634Z,0
2018-03-27T03:42:52.611Z,0
2018-03-27T03:43:52.867Z,0
2018-03-27T03:44:52.587Z,0
2018-03-27T03:45:52.835Z,0
2018-03-27T03:46:52.537Z,0
2018-03-27T03:47:52.514Z,0
2018-03-27T03:48:52.243Z,0
2018-03-27T03:49:52.487Z,0
2018-03-27T03:50:52.715Z,0
2018-03-27T03:51:52.173Z,0
2018-03-27T03:52:52.435Z,0
2018-03-27T03:53:52.126Z,0
2018-03-27T03:54:52.105Z,0
2018-03-27T03:55:51.814Z,0
2018-03-27T03:56:52.322Z,0
2018-03-27T03:57:52.579Z,0
2018-03-27T03:58:52.275Z,0
2018-03-27T03:59:51.738Z,0
2018-03-27T04:00:52.247Z,0
2018-03-27T04:01:52.216Z,0
2018-03-27T04:02:52.133Z,0
2018-03-27T04:03:52.447Z,0
2018-03-27T04:04:51.890Z,0
2018-03-27T04:05:51.869Z,0
2018-03-27T04:06:52.109Z,0
2018-03-27T04:07:52.100Z,0
2018-03-27T04:08:51.804Z,0
2018-03-27T04:09:52.322Z,0
2018-03-27T04:10:52.292Z,0
2018-03-27T04:11:52.276Z,0
2018-03-27T04:12:51.719Z,0
2018-03-27T04:13:52.231Z,0
2018-03-27T04:14:52.209Z,0
2018-03-27T04:15:51.915Z,0
2018-03-27T04:16:51.638Z,0
2018-03-27T04:17:51.612Z,0
2018-03-27T04:18:52.204Z,0
2018-03-27T04:19:51.937Z,0
2018-03-27T04:20:51.351Z,0
2018-03-27T04:21:51.527Z,0
2018-03-27T04:22:51.776Z,0
2018-03-27T04:23:52.107Z,0
2018-03-27T04:24:51.844Z,0
2018-03-27T04:25:51.779Z,0
2018-03-27T04:26:51.690Z,0
2018-03-27T04:27:51.661Z,0
2018-03-27T04:28:51.936Z,0
2018-03-27T04:29:51.679Z,0
2018-03-27T04:30:51.072Z,0
2018-03-27T04:31:51.048Z,0
2018-03-27T04:32:51.059Z,0
2018-03-27T04:33:51.627Z,0
2018-03-27T04:34:51.321Z,0
2018-03-27T04:35:51.020Z,0
2018-03-27T04:36:50.944Z,0
2018-03-27T04:37:51.512Z,0
2018-03-27T04:38:51.504Z,0
2018-03-27T04:39:51.437Z,0
2018-03-27T04:40:51.153Z,0
2018-03-27T04:41:51.148Z,0
2018-03-27T04:42:51.347Z,0
2018-03-27T04:43:51.428Z,0
2018-03-27T04:44:51.145Z,0
2018-03-27T04:45:51.066Z,0
2018-03-27T04:46:51.285Z,0
2018-03-27T04:47:51.254Z,0
2018-03-27T04:48:51.007Z,0
2018-03-27T04:49:51.325Z,4
2018-03-27T04:50:51.202Z,4
2018-03-27T04:51:51.040Z,0
2018-03-27T04:52:51.323Z,4
2018-03-27T04:53:50.882Z,4
2018-03-27T04:54:51.371Z,4
2018-03-27T04:55:51.473Z,4
2018-03-27T04:56:51.344Z,4
2018-03-27T04:57:50.748Z,8
2018-03-27T04:58:50.734Z,8
2018-03-27T04:59:50.705Z,12
2018-03-27T05:00:50.962Z,12
2018-03-27T05:01:50.935Z,20
2018-03-27T05:02:50.642Z,20
2018-03-27T05:03:50.887Z,24
2018-03-27T05:04:50.604Z,28
2018-03-27T05:05:50.838Z,32
2018-03-27T05:06:50.293Z,36
2018-03-27T05:07:50.803Z,44
2018-03-27T05:08:50.580Z,52
2018-03-27T05:09:50.751Z,56
2018-03-27T05:10:50.734Z,64
2018-03-27T05:11:50.723Z,72
2018-03-27T05:12:50.695Z,80
2018-03-27T05:13:50.134Z,96
2018-03-27T05:14:50.396Z,104
2018-03-27T05:15:50.893Z,116
2018-03-27T05:16:50.877Z,128
2018-03-27T05:17:50.919Z,144
2018-03-27T05:18:50.308Z,156
2018-03-27T05:19:50.285Z,172
2018-03-27T05:20:50.519Z,188
2018-03-27T05:21:50.238Z,204
2018-03-27T05:22:50.212Z,220
2018-03-27T05:23:49.924Z,236
2018-03-27T05:24:50.166Z,252
2018-03-27T05:25:50.667Z,256
2018-03-27T05:26:50.127Z,252
2018-03-27T05:27:50.118Z,256
2018-03-27T05:28:50.348Z,276
2018-03-27T05:29:50.054Z,280
2018-03-27T05:30:50.577Z,280
2018-03-27T05:31:50.026Z,284
2018-03-27T05:32:50.459Z,304
2018-03-27T05:33:49.999Z,320
2018-03-27T05:34:50.215Z,352
2018-03-27T05:35:50.191Z,376
2018-03-27T05:36:50.437Z,420
2018-03-27T05:37:50.154Z,472
2018-03-27T05:38:50.414Z,512
2018-03-27T05:39:50.376Z,548
2018-03-27T05:40:49.872Z,548
2018-03-27T05:41:50.063Z,548
2018-03-27T05:42:50.305Z,552
2018-03-27T05:43:49.758Z,568
2018-03-27T05:44:49.994Z,592
2018-03-27T05:45:49.977Z,652
2018-03-27T05:46:49.760Z,716
2018-03-27T05:47:49.674Z,776
2018-03-27T05:48:49.916Z,820
2018-03-27T05:49:49.354Z,860
2018-03-27T05:50:49.608Z,904
2018-03-27T05:51:50.210Z,936
2018-03-27T05:52:49.832Z,972
2018-03-27T05:53:49.809Z,1004
2018-03-27T05:54:49.784Z,1048
2018-03-27T05:55:49.810Z,1080
2018-03-27T05:56:49.746Z,1108
2018-03-27T05:57:49.451Z,1148
2018-03-27T05:58:49.696Z,1176
2018-03-27T05:59:49.411Z,1244
2018-03-27T06:00:49.646Z,1292
2018-03-27T06:01:49.365Z,1324
2018-03-27T06:02:49.757Z,1368
2018-03-27T06:03:49.592Z,1424
2018-03-27T06:04:49.827Z,1488
2018-03-27T06:05:49.541Z,1544
2018-03-27T06:06:49.517Z,1604
2018-03-27T06:07:49.306Z,1664
2018-03-27T06:08:49.473Z,1736
2018-03-27T06:09:49.195Z,1804
2018-03-27T06:10:49.435Z,1868
2018-03-27T06:11:49.151Z,1936
2018-03-27T06:12:49.131Z,2000
2018-03-27T06:13:49.640Z,2068
2018-03-27T06:14:49.631Z,2172
2018-03-27T06:15:49.607Z,2308
2018-03-27T06:16:49.056Z,2464
2018-03-27T06:17:49.020Z,2644
2018-03-27T06:18:49.308Z,2832
2018-03-27T06:19:49.248Z,3000
2018-03-27T06:20:49.223Z,3144
2018-03-27T06:21:49.195Z,3276
2018-03-27T06:22:48.923Z,3380
2018-03-27T06:23:49.169Z,3452
2018-03-27T06:24:48.877Z,3536
2018-03-27T06:25:49.114Z,3628
2018-03-27T06:26:49.372Z,3740
2018-03-27T06:27:49.096Z,3888
2018-03-27T06:28:49.120Z,4036
2018-03-27T06:29:48.849Z,4168
2018-03-27T06:30:48.745Z,4332
2018-03-27T06:31:48.994Z,4492
2018-03-27T06:32:48.981Z,4536
2018-03-27T06:33:49.031Z,4564
2018-03-27T06:34:48.936Z,4652
2018-03-27T06:35:48.906Z,4748
2018-03-27T06:36:49.154Z,4840
2018-03-27T06:37:48.598Z,4892
2018-03-27T06:38:48.588Z,4920
2018-03-27T06:39:48.833Z,4952
2018-03-27T06:40:49.086Z,4960
2018-03-27T06:41:48.254Z,5004
2018-03-27T06:42:48.505Z,5000
2018-03-27T06:43:49.030Z,4976
2018-03-27T06:44:48.740Z,4976
2018-03-27T06:45:48.973Z,4960
2018-03-27T06:46:48.976Z,4916
2018-03-27T06:47:48.726Z,4816
2018-03-27T06:48:48.659Z,4704
2018-03-27T06:49:48.109Z,4592
2018-03-27T06:50:48.667Z,4484
2018-03-27T06:51:48.371Z,4360
2018-03-27T06:52:48.875Z,4316
2018-03-27T06:53:48.053Z,4292
2018-03-27T06:54:48.532Z,4296
2018-03-27T06:55:47.987Z,4356
2018-03-27T06:56:48.496Z,4372
2018-03-27T06:57:47.939Z,4364
2018-03-27T06:58:48.747Z,4344
2018-03-27T06:59:47.910Z,4384
2018-03-27T07:00:48.417Z,4412
2018-03-27T07:01:47.874Z,4384
2018-03-27T07:02:48.151Z,4332
2018-03-27T07:03:48.424Z,4120
2018-03-27T07:04:48.092Z,3880
2018-03-27T07:05:48.228Z,3804
2018-03-27T07:06:48.315Z,3696
2018-03-27T07:07:48.316Z,3608
2018-03-27T07:08:48.277Z,3608
2018-03-27T07:09:48.263Z,3632
2018-03-27T07:10:47.971Z,3676
2018-03-27T07:11:48.245Z,3712
2018-03-27T07:12:47.976Z,3748
2018-03-27T07:13:48.251Z,3808
2018-03-27T07:14:48.168Z,3888
2018-03-27T07:15:48.172Z,3980
2018-03-27T07:16:48.124Z,4100
2018-03-27T07:17:48.159Z,4208
2018-03-27T07:18:48.377Z,4292
2018-03-27T07:19:48.093Z,4384
2018-03-27T07:20:47.499Z,4468
2018-03-27T07:21:48.388Z,4556
2018-03-27T07:22:47.734Z,4624
2018-03-27T07:23:47.745Z,4668
2018-03-27T07:24:47.965Z,4684
2018-03-27T07:25:47.667Z,4700
2018-03-27T07:26:47.653Z,4752
2018-03-27T07:27:48.160Z,4820
2018-03-27T07:28:47.888Z,4896
2018-03-27T07:29:47.598Z,4980
2018-03-27T07:30:48.192Z,5068
2018-03-27T07:31:47.563Z,5140
2018-03-27T07:32:47.555Z,5180
2018-03-27T07:33:47.794Z,5188
2018-03-27T07:34:47.774Z,5216
2018-03-27T07:35:47.492Z,5288
2018-03-27T07:36:47.466Z,5404
2018-03-27T07:37:47.728Z,5496
2018-03-27T07:38:47.705Z,5560
2018-03-27T07:39:47.945Z,5596
2018-03-27T07:40:47.395Z,5604
2018-03-27T07:41:47.642Z,5616
2018-03-27T07:42:47.642Z,5664
2018-03-27T07:43:47.341Z,5692
2018-03-27T07:44:47.585Z,5708
2018-03-27T07:45:47.582Z,5716
2018-03-27T07:46:47.292Z,5716
2018-03-27T07:47:47.540Z,5716
2018-03-27T07:48:46.982Z,5752
2018-03-27T07:49:47.225Z,5816
2018-03-27T07:50:46.947Z,5880
2018-03-27T07:51:47.457Z,5960
2018-03-27T07:52:47.440Z,6004
2018-03-27T07:53:47.154Z,5988
2018-03-27T07:54:47.410Z,5940
2018-03-27T07:55:47.123Z,5884
2018-03-27T07:56:46.835Z,5844
2018-03-27T07:57:47.375Z,5852
2018-03-27T07:58:47.065Z,5912
2018-03-27T07:59:47.046Z,6040
2018-03-27T08:00:47.296Z,6192
2018-03-27T08:01:46.760Z,6316
2018-03-27T08:02:46.994Z,6372
2018-03-27T08:03:46.973Z,6376
2018-03-27T08:04:47.233Z,6336
2018-03-27T08:05:46.951Z,6340
2018-03-27T08:06:47.191Z,6404
2018-03-27T08:07:47.185Z,6500
2018-03-27T08:08:47.161Z,6624
2018-03-27T08:09:46.880Z,6768
2018-03-27T08:10:47.116Z,6932
2018-03-27T08:11:47.363Z,7168
2018-03-27T08:12:47.091Z,7468
2018-03-27T08:13:47.063Z,7808
2018-03-27T08:14:46.533Z,8116
2018-03-27T08:15:47.042Z,8364
2018-03-27T08:16:47.016Z,8528
2018-03-27T08:17:47.009Z,8592
2018-03-27T08:18:46.980Z,8600
2018-03-27T08:19:46.695Z,8580
2018-03-27T08:20:46.943Z,8628
2018-03-27T08:21:46.660Z,8688
2018-03-27T08:22:46.681Z,8688
2018-03-27T08:23:46.894Z,8624
2018-03-27T08:24:46.898Z,8468
2018-03-27T08:25:47.133Z,8300
2018-03-27T08:26:46.598Z,8164
2018-03-27T08:27:47.089Z,8112
2018-03-27T08:28:46.664Z,8188
2018-03-27T08:29:46.985Z,8404
2018-03-27T08:30:46.887Z,8700
2018-03-27T08:31:46.509Z,9068
2018-03-27T08:32:46.476Z,9472
2018-03-27T08:33:46.508Z,9856
2018-03-27T08:34:46.709Z,10192
2018-03-27T08:35:46.555Z,10464
2018-03-27T08:36:46.170Z,10716
2018-03-27T08:37:46.684Z,10964
2018-03-27T08:38:46.908Z,11176
2018-03-27T08:39:46.430Z,11368
2018-03-27T08:40:46.360Z,11588
2018-03-27T08:41:46.661Z,11880
2018-03-27T08:42:46.986Z,12204
2018-03-27T08:43:46.833Z,12672
2018-03-27T08:44:46.026Z,13316
2018-03-27T08:45:46.544Z,14432
2018-03-27T08:46:46.315Z,14388
2018-03-27T08:47:46.496Z,14504
2018-03-27T08:48:46.570Z,14876
2018-03-27T08:49:46.196Z,14836
2018-03-27T08:50:46.829Z,14540
2018-03-27T08:51:46.177Z,14904
2018-03-27T08:52:46.200Z,14456
2018-03-27T08:53:46.432Z,15020
2018-03-27T08:54:46.139Z,14116
2018-03-27T08:55:46.131Z,14628
2018-03-27T08:56:46.126Z,15916
2018-03-27T08:57:46.085Z,14240
2018-03-27T08:58:46.062Z,21280
2018-03-27T08:59:46.334Z,19296
2018-03-27T09:00:46.366Z,30688
2018-03-27T09:01:45.750Z,26432
2018-03-27T09:02:46.003Z,15256
2018-03-27T09:03:46.692Z,15280
2018-03-27T09:04:45.996Z,11924
2018-03-27T09:05:45.973Z,14268
2018-03-27T09:06:46.216Z,16060
2018-03-27T09:07:46.201Z,15256
2018-03-27T09:08:46.454Z,17984
2018-03-27T09:09:46.198Z,26496
2018-03-27T09:10:46.165Z,25600
2018-03-27T09:11:45.898Z,22016
2018-03-27T09:12:46.135Z,17376
2018-03-27T09:13:46.142Z,13904
2018-03-27T09:14:46.121Z,15544
2018-03-27T09:15:46.106Z,16544
2018-03-27T09:16:45.834Z,19904
2018-03-27T09:17:46.354Z,21408
2018-03-27T09:18:45.559Z,18816
2018-03-27T09:19:45.792Z,20032
2018-03-27T09:20:46.051Z,28160
2018-03-27T09:21:46.045Z,29760
2018-03-27T09:22:46.032Z,28928
2018-03-27T09:23:45.750Z,24640
2018-03-27T09:24:46.020Z,20480
2018-03-27T09:25:46.008Z,17536
2018-03-27T09:26:45.986Z,14544
2018-03-27T09:27:45.712Z,14764
2018-03-27T09:28:45.486Z,19008
2018-03-27T09:29:45.954Z,21568
2018-03-27T09:30:45.952Z,26464
2018-03-27T09:31:45.402Z,25248
2018-03-27T09:32:45.938Z,18624
2018-03-27T09:33:45.657Z,19552
2018-03-27T09:34:45.916Z,24576
2018-03-27T09:35:45.377Z,23552
2018-03-27T09:36:45.624Z,14468
2018-03-27T09:37:45.611Z,23808
2018-03-27T09:38:45.613Z,24768
2018-03-27T09:39:45.865Z,21952
2018-03-27T09:40:45.599Z,21728
2018-03-27T09:41:45.853Z,21568
2018-03-27T09:42:45.830Z,21024
2018-03-27T09:43:45.827Z,17664
2018-03-27T09:44:45.825Z,21632
2018-03-27T09:45:46.077Z,21216
2018-03-27T09:46:45.816Z,16148
2018-03-27T09:47:45.788Z,16992
2018-03-27T09:48:46.058Z,14780
2018-03-27T09:49:45.244Z,15412
2018-03-27T09:50:45.498Z,15748
2018-03-27T09:51:45.483Z,16704
2018-03-27T09:52:45.736Z,20256
2018-03-27T09:53:45.213Z,28032
2018-03-27T09:54:45.719Z,15744
2018-03-27T09:55:45.723Z,16364
2018-03-27T09:56:45.162Z,37664
2018-03-27T09:57:45.953Z,25920
2018-03-27T09:58:45.682Z,30240
2018-03-27T09:59:45.948Z,24480
2018-03-27T10:00:45.393Z,22880
2018-03-27T10:01:45.658Z,23904
2018-03-27T10:02:45.652Z,24640
2018-03-27T10:03:45.831Z,29184
2018-03-27T10:04:45.635Z,31168
2018-03-27T10:05:45.369Z,29184
2018-03-27T10:06:45.883Z,31776
2018-03-27T10:07:45.056Z,30080
2018-03-27T10:08:45.854Z,27424
2018-03-27T10:09:45.585Z,34560
2018-03-27T10:10:45.565Z,32320
2018-03-27T10:11:45.831Z,28224
2018-03-27T10:12:45.288Z,27296
2018-03-27T10:13:45.277Z,23744
2018-03-27T10:14:45.531Z,26784
2018-03-27T10:15:45.302Z,29728
2018-03-27T10:16:45.260Z,28288
2018-03-27T10:17:44.976Z,25728
2018-03-27T10:18:44.964Z,30592
2018-03-27T10:19:45.227Z,40992
2018-03-27T10:20:45.231Z,41472
2018-03-27T10:21:45.742Z,31072
2018-03-27T10:22:45.210Z,23264
2018-03-27T10:23:45.487Z,23456
2018-03-27T10:24:45.485Z,25664
2018-03-27T10:25:45.188Z,35520
2018-03-27T10:26:45.711Z,26752
2018-03-27T10:27:45.441Z,41440
2018-03-27T10:28:45.161Z,26848
2018-03-27T10:29:45.419Z,35232
2018-03-27T10:30:45.413Z,42496
2018-03-27T10:31:45.141Z,49472
2018-03-27T10:32:45.657Z,44352
2018-03-27T10:33:45.391Z,40480
2018-03-27T10:34:45.393Z,21696
2018-03-27T10:35:45.112Z,40704
2018-03-27T10:36:45.644Z,31232
2018-03-27T10:37:45.359Z,43584
2018-03-27T10:38:45.545Z,31296
2018-03-27T10:39:45.355Z,29408
2018-03-27T10:40:45.612Z,30144
2018-03-27T10:41:45.069Z,28800
2018-03-27T10:42:45.323Z,32352
2018-03-27T10:43:44.793Z,32544
2018-03-27T10:44:45.366Z,33376
2018-03-27T10:45:45.297Z,40224
2018-03-27T10:46:45.291Z,43168
2018-03-27T10:47:45.282Z,41696
2018-03-27T10:48:45.304Z,40128
2018-03-27T10:49:45.002Z,27744
2018-03-27T10:50:45.076Z,35456
2018-03-27T10:51:45.001Z,47680
2018-03-27T10:52:45.516Z,52896
2018-03-27T10:53:45.254Z,56992
2018-03-27T10:54:45.517Z,49600
2018-03-27T10:55:45.652Z,52128
2018-03-27T10:56:45.220Z,58464
2018-03-27T10:57:44.953Z,57984
2018-03-27T10:58:44.955Z,51392
2018-03-27T10:59:45.203Z,59328
2018-03-27T11:00:44.934Z,50080
2018-03-27T11:01:45.464Z,58240
2018-03-27T11:02:45.186Z,36768
2018-03-27T11:03:45.294Z,27328
2018-03-27T11:04:45.192Z,31296
2018-03-27T11:05:45.172Z,27808
2018-03-27T11:06:44.909Z,31616
2018-03-27T11:07:44.901Z,36384
2018-03-27T11:08:45.176Z,24576
2018-03-27T11:09:45.159Z,40192
2018-03-27T11:10:44.881Z,22368
2018-03-27T11:11:45.150Z,17984
2018-03-27T11:12:44.878Z,17824
2018-03-27T11:13:44.868Z,16640
2018-03-27T11:14:44.871Z,17056
2018-03-27T11:15:45.132Z,17216
2018-03-27T11:16:44.849Z,19168
2018-03-27T11:17:44.848Z,22048
2018-03-27T11:18:44.860Z,26208
2018-03-27T11:19:44.888Z,27360
2018-03-27T11:20:44.557Z,29984
2018-03-27T11:21:44.551Z,39104
2018-03-27T11:22:45.093Z,29536
2018-03-27T11:23:45.083Z,30912
2018-03-27T11:24:45.078Z,42304
2018-03-27T11:25:45.077Z,36352
2018-03-27T11:26:45.050Z,41312
2018-03-27T11:27:45.050Z,42144
2018-03-27T11:28:45.309Z,27808
2018-03-27T11:29:45.033Z,31392
2018-03-27T11:30:44.756Z,27008
2018-03-27T11:31:44.748Z,25280
2018-03-27T11:32:44.748Z,33792
2018-03-27T11:33:44.460Z,43712
2018-03-27T11:34:44.725Z,49472
2018-03-27T11:35:44.977Z,46560
2018-03-27T11:36:45.235Z,43200
2018-03-27T11:37:44.705Z,40800
2018-03-27T11:38:44.712Z,31456
2018-03-27T11:39:44.710Z,42240
2018-03-27T11:40:44.694Z,31168
2018-03-27T11:41:44.688Z,34304
2018-03-27T11:42:44.693Z,28512
2018-03-27T11:43:44.420Z,32352
2018-03-27T11:44:44.659Z,35712
2018-03-27T11:45:44.652Z,39584
2018-03-27T11:46:44.646Z,38240
2018-03-27T11:47:44.904Z,38944
2018-03-27T11:48:44.899Z,42336
2018-03-27T11:49:44.903Z,47200
2018-03-27T11:50:44.635Z,51456
2018-03-27T11:51:44.618Z,54400
2018-03-27T11:52:44.896Z,51232
2018-03-27T11:53:45.147Z,55008
2018-03-27T11:54:44.994Z,56768
2018-03-27T11:55:44.857Z,40000
2018-03-27T11:56:45.127Z,43072
2018-03-27T11:57:44.583Z,22304
2018-03-27T11:58:44.312Z,23712
2018-03-27T11:59:45.014Z,18656
2018-03-27T12:00:44.568Z,16104
2018-03-27T12:01:44.831Z,13840
2018-03-27T12:02:44.569Z,11824
2018-03-27T12:03:44.756Z,9904
2018-03-27T12:04:44.814Z,8792
2018-03-27T12:05:44.789Z,8136
2018-03-27T12:06:45.123Z,8096
2018-03-27T12:07:44.529Z,8292
2018-03-27T12:08:44.527Z,8768
2018-03-27T12:09:44.775Z,9316
2018-03-27T12:10:44.879Z,9040
2018-03-27T12:11:44.233Z,8300
2018-03-27T12:12:44.524Z,7684
2018-03-27T12:13:44.857Z,7548
2018-03-27T12:14:44.785Z,7740
2018-03-27T12:15:45.039Z,7952
2018-03-27T12:16:44.698Z,8656
2018-03-27T12:17:44.721Z,8472
2018-03-27T12:18:44.708Z,7884
2018-03-27T12:19:45.205Z,7900
2018-03-27T12:20:44.674Z,7680
2018-03-27T12:21:44.435Z,7480
2018-03-27T12:22:44.658Z,7672
2018-03-27T12:23:44.907Z,8440
2018-03-27T12:24:44.364Z,9636
2018-03-27T12:25:44.359Z,11432
2018-03-27T12:26:44.881Z,11840
2018-03-27T12:27:44.860Z,13624
2018-03-27T12:28:44.386Z,14440
2018-03-27T12:29:44.610Z,13784
2018-03-27T12:30:44.778Z,13124
2018-03-27T12:31:44.639Z,13164
2018-03-27T12:32:44.269Z,12832
2018-03-27T12:33:44.789Z,13308
2018-03-27T12:34:44.525Z,14776
2018-03-27T12:35:44.230Z,14592
2018-03-27T12:36:44.279Z,12156
2018-03-27T12:37:44.743Z,11276
2018-03-27T12:38:44.193Z,11116
2018-03-27T12:39:44.439Z,12156
2018-03-27T12:40:44.171Z,12628
2018-03-27T12:41:44.426Z,12824
2018-03-27T12:42:44.414Z,12876
2018-03-27T12:43:44.412Z,12980
2018-03-27T12:44:44.125Z,12936
2018-03-27T12:45:43.870Z,12056
2018-03-27T12:46:44.094Z,10836
2018-03-27T12:47:44.732Z,9500
2018-03-27T12:48:44.087Z,8536
2018-03-27T12:49:43.799Z,8100
2018-03-27T12:50:44.050Z,7196
2018-03-27T12:51:44.041Z,7200
2018-03-27T12:52:44.281Z,8272
2018-03-27T12:53:44.017Z,8580
2018-03-27T12:54:44.007Z,7904
2018-03-27T12:55:44.259Z,7628
2018-03-27T12:56:44.518Z,7504
2018-03-27T12:57:44.491Z,7016
2018-03-27T12:58:44.264Z,6824
2018-03-27T12:59:44.222Z,7124
2018-03-27T13:00:44.186Z,7932
2018-03-27T13:01:44.172Z,8928
2018-03-27T13:02:43.896Z,9532
2018-03-27T13:03:43.889Z,9580
2018-03-27T13:04:44.148Z,9652
2018-03-27T13:05:44.367Z,10452
2018-03-27T13:06:44.107Z,11108
2018-03-27T13:07:43.832Z,11200
2018-03-27T13:08:43.807Z,10780
2018-03-27T13:09:43.795Z,10348
2018-03-27T13:10:43.781Z,9924
2018-03-27T13:11:44.313Z,9432
2018-03-27T13:12:44.290Z,9188
2018-03-27T13:13:44.278Z,9328
2018-03-27T13:14:44.272Z,8644
2018-03-27T13:15:43.990Z,7112
2018-03-27T13:16:43.444Z,5924
2018-03-27T13:17:44.113Z,5404
2018-03-27T13:18:43.987Z,5016
2018-03-27T13:19:43.667Z,4560
2018-03-27T13:20:44.186Z,4476
2018-03-27T13:21:43.907Z,4528
2018-03-27T13:22:43.626Z,4308
2018-03-27T13:23:43.616Z,3980
2018-03-27T13:24:43.381Z,3912
2018-03-27T13:25:43.331Z,3932
2018-03-27T13:26:43.831Z,4072
2018-03-27T13:27:43.603Z,4356
2018-03-27T13:28:43.801Z,4800
2018-03-27T13:29:43.528Z,5372
2018-03-27T13:30:43.958Z,5932
2018-03-27T13:31:43.242Z,6640
2018-03-27T13:32:43.493Z,7604
2018-03-27T13:33:43.479Z,8532
2018-03-27T13:34:43.201Z,9124
2018-03-27T13:35:43.722Z,10056
2018-03-27T13:36:43.446Z,11420
2018-03-27T13:37:43.690Z,12896
2018-03-27T13:38:43.872Z,15608
2018-03-27T13:39:43.125Z,16512
2018-03-27T13:40:43.386Z,18080
2018-03-27T13:41:43.895Z,17856
2018-03-27T13:42:43.352Z,17664